Terminal Aerodrome Forecast
Issued by NWS

Home | Current Version | Previous Version | Text Only | Print | Product List | Glossary On
Versions: 1 2 3 4 5 6 7 8 9 10 11 12 13 14 15 16 17 18 19 20 21 22
000
FTUS46 KMFR 201742
TAFOTH
TAF
KOTH 201742Z 2018/2118 22008KT 5SM -RA BR SCT004 OVC025
      TEMPO 2019/2021 BKN005
     FM210000 14005KT 5SM -RA BR SCT005 OVC015
     FM210600 16012G18KT 3SM -RA BR BKN006 OVC012=

USA.gov is the U.S. government's official web portal to all federal, state and local government web resources and services.